Time;durP1;ratioP1;P1;durP2;ratioP2;P2;SDS_P1;SDS_P2;PMS_P1;PMS_P2;Temp;Humidity;BMP_temperature;BMP_pressure;BME280_temperature;BME280_humidity;BME280_pressure;Samples;Min_cycle;Max_cycle;Signal;HPM_P1;HPM_P2
2022/10/03 00:02:21;;;;;;;0.00;0.00;;;12.30;99.90;;;;;;5035006;28;20277;-65
2022/10/03 00:05:15;;;;;;;0.00;0.00;;;12.30;99.90;;;;;;5044739;28;20214;-66
2022/10/03 00:08:00;;;;;;;0.00;0.00;;;12.30;99.90;;;;;;5042528;28;20675;-65
2022/10/03 00:11:04;;;;;;;0.00;0.00;;;12.20;99.90;;;;;;5034919;28;20637;-65
2022/10/03 00:14:01;;;;;;;0.00;0.00;;;12.10;99.90;;;;;;5045725;28;20185;-66
2022/10/03 00:16:32;;;;;;;0.00;0.00;;;12.10;99.90;;;;;;5047423;28;20308;-66
2022/10/03 00:19:19;;;;;;;0.38;0.10;;;12.10;99.90;;;;;;5035716;28;20184;-65
2022/10/03 00:22:05;;;;;;;0.00;0.00;;;12.20;99.90;;;;;;5040476;28;20205;-66
2022/10/03 00:24:43;;;;;;;0.00;0.00;;;12.20;99.90;;;;;;5049203;28;20185;-66
2022/10/03 00:27:26;;;;;;;0.00;0.00;;;12.20;99.90;;;;;;5043034;28;20203;-66
2022/10/03 00:30:09;;;;;;;0.00;0.00;;;12.20;99.90;;;;;;5037811;28;20307;-66
2022/10/03 00:32:55;;;;;;;0.00;0.00;;;12.20;99.90;;;;;;5038479;28;20190;-65
2022/10/03 00:35:55;;;;;;;0.03;0.03;;;12.20;99.90;;;;;;5035969;28;20177;-66
2022/10/03 00:38:53;;;;;;;0.45;0.20;;;12.30;99.90;;;;;;5030306;28;20201;-65
2022/10/03 00:41:53;;;;;;;0.20;0.20;;;12.30;99.90;;;;;;5039552;28;20217;-65
2022/10/03 00:44:57;;;;;;;0.00;0.00;;;12.30;99.90;;;;;;5042638;28;20181;-65
2022/10/03 00:47:43;;;;;;;0.22;0.15;;;12.30;99.90;;;;;;5027418;28;20193;-66
2022/10/03 00:50:17;;;;;;;0.43;0.20;;;12.30;99.90;;;;;;5046651;28;20853;-66
2022/10/03 00:53:10;;;;;;;0.10;0.10;;;12.40;99.90;;;;;;5049321;28;20651;-66
2022/10/03 00:55:48;;;;;;;0.00;0.00;;;12.40;99.90;;;;;;5038837;28;20213;-66
2022/10/03 00:58:33;;;;;;;0.00;0.00;;;12.40;99.90;;;;;;5044608;28;20169;-66
2022/10/03 01:01:25;;;;;;;0.00;0.00;;;12.40;99.90;;;;;;5053636;28;20181;-66
2022/10/03 01:04:04;;;;;;;0.10;0.10;;;12.40;99.90;;;;;;5042082;28;20228;-66
2022/10/03 01:07:09;;;;;;;0.00;0.00;;;12.40;99.90;;;;;;5031682;28;20240;-66
2022/10/03 01:10:00;;;;;;;0.00;0.00;;;12.40;99.90;;;;;;5026653;28;20190;-66
2022/10/03 01:12:25;;;;;;;0.00;0.00;;;12.40;99.90;;;;;;5034759;28;20194;-66
2022/10/03 01:15:27;;;;;;;0.10;0.10;;;12.40;99.90;;;;;;5045513;28;20173;-66
2022/10/03 01:18:29;;;;;;;0.10;0.10;;;12.40;99.90;;;;;;5049584;28;20192;-66
2022/10/03 01:21:16;;;;;;;0.00;0.00;;;12.40;99.90;;;;;;5042017;28;20186;-66
2022/10/03 01:24:11;;;;;;;0.08;0.08;;;12.40;99.90;;;;;;5037303;28;20236;-65
2022/10/03 01:26:51;;;;;;;0.00;0.00;;;12.40;99.90;;;;;;5048618;28;20177;-66
2022/10/03 01:32:28;;;;;;;0.47;0.38;;;12.30;99.90;;;;;;5049316;28;20247;-65
2022/10/03 01:35:18;;;;;;;0.13;0.10;;;12.30;99.90;;;;;;5049166;28;20262;-65
2022/10/03 01:38:08;;;;;;;0.10;0.10;;;12.30;99.90;;;;;;5023956;28;20189;-65
2022/10/03 01:40:39;;;;;;;0.45;0.28;;;12.30;99.90;;;;;;5035608;28;20186;-66
2022/10/03 01:43:20;;;;;;;0.28;0.28;;;12.30;99.90;;;;;;5035780;28;20182;-65
2022/10/03 01:45:53;;;;;;;0.03;0.03;;;12.30;99.90;;;;;;5040045;28;20532;-66
2022/10/03 01:48:34;;;;;;;0.00;0.00;;;12.30;99.90;;;;;;5046372;28;20178;-66
2022/10/03 01:51:07;;;;;;;0.05;0.05;;;12.30;99.90;;;;;;5040692;28;20192;-66
2022/10/03 01:53:49;;;;;;;0.00;0.00;;;12.20;99.90;;;;;;5043446;28;20209;-66
2022/10/03 01:56:25;;;;;;;0.45;0.45;;;12.20;99.90;;;;;;5036628;28;20213;-66
2022/10/03 01:59:09;;;;;;;0.20;0.20;;;12.10;99.90;;;;;;5046905;28;20230;-65
2022/10/03 02:02:00;;;;;;;0.10;0.10;;;12.10;99.90;;;;;;5039641;28;20178;-65
2022/10/03 02:04:29;;;;;;;0.00;0.00;;;12.00;99.90;;;;;;5034831;28;20245;-65
2022/10/03 02:07:22;;;;;;;0.35;0.15;;;12.00;99.90;;;;;;5034396;28;20657;-65
2022/10/03 02:10:01;;;;;;;0.00;0.00;;;12.00;99.90;;;;;;5040468;28;20656;-65
2022/10/03 02:12:34;;;;;;;0.10;0.10;;;11.90;99.90;;;;;;5051909;28;20185;-66
2022/10/03 02:15:16;;;;;;;0.00;0.00;;;11.90;99.90;;;;;;5054159;28;20649;-66
2022/10/03 02:18:11;;;;;;;0.50;0.20;;;11.90;99.90;;;;;;5037476;28;20193;-66
2022/10/03 02:20:49;;;;;;;0.00;0.00;;;11.90;99.90;;;;;;5015445;28;20174;-66
2022/10/03 02:23:43;;;;;;;0.00;0.00;;;11.80;99.90;;;;;;5020690;28;20178;-65
2022/10/03 02:26:09;;;;;;;0.00;0.00;;;11.80;99.90;;;;;;5044323;28;20241;-65
2022/10/03 02:28:43;;;;;;;0.20;0.20;;;11.80;99.90;;;;;;5042566;28;20182;-65
2022/10/03 02:31:31;;;;;;;0.00;0.00;;;11.80;99.90;;;;;;5049189;28;20246;-65
2022/10/03 02:34:24;;;;;;;0.00;0.00;;;11.80;99.90;;;;;;5041035;28;20254;-65
2022/10/03 02:37:14;;;;;;;0.00;0.00;;;11.80;99.90;;;;;;5029961;28;20217;-65
2022/10/03 02:40:18;;;;;;;0.00;0.00;;;11.80;99.90;;;;;;5029212;28;20698;-66
2022/10/03 02:43:15;;;;;;;0.22;0.22;;;11.80;99.90;;;;;;5031630;28;20541;-65
2022/10/03 02:46:19;;;;;;;0.00;0.00;;;11.70;99.90;;;;;;5034871;28;20596;-65
2022/10/03 02:49:22;;;;;;;0.00;0.00;;;11.70;99.90;;;;;;5036111;28;20240;-65
2022/10/03 02:52:16;;;;;;;0.00;0.00;;;11.70;99.90;;;;;;5036200;28;20193;-65
2022/10/03 02:54:55;;;;;;;0.25;0.25;;;11.70;99.90;;;;;;5049785;28;20268;-65
2022/10/03 02:57:41;;;;;;;0.00;0.00;;;11.60;99.90;;;;;;5037035;28;20313;-65
2022/10/03 03:00:22;;;;;;;0.00;0.00;;;11.60;99.90;;;;;;5023958;28;20186;-66
2022/10/03 03:03:12;;;;;;;0.00;0.00;;;11.60;99.90;;;;;;5040629;28;20255;-65
2022/10/03 03:06:16;;;;;;;0.00;0.00;;;11.60;99.90;;;;;;5050690;28;20232;-67
2022/10/03 03:09:17;;;;;;;0.00;0.00;;;11.50;99.90;;;;;;5028121;28;20188;-65
2022/10/03 03:12:06;;;;;;;0.00;0.00;;;11.50;99.90;;;;;;5045687;28;20204;-65
2022/10/03 03:14:56;;;;;;;0.10;0.10;;;11.40;99.90;;;;;;5023648;28;20265;-65
2022/10/03 03:17:33;;;;;;;0.47;0.47;;;11.40;99.90;;;;;;5017756;28;20308;-66
2022/10/03 03:20:19;;;;;;;0.10;0.10;;;11.40;99.90;;;;;;5045137;28;20204;-66
2022/10/03 03:23:15;;;;;;;0.28;0.28;;;11.30;99.90;;;;;;5052449;28;20173;-65
2022/10/03 03:26:11;;;;;;;0.00;0.00;;;11.30;99.90;;;;;;5040752;28;20182;-65
2022/10/03 03:29:09;;;;;;;1.15;0.30;;;11.30;99.90;;;;;;5037489;28;20181;-66
2022/10/03 03:31:53;;;;;;;0.05;0.05;;;11.20;99.90;;;;;;5033075;28;20177;-66
2022/10/03 03:34:41;;;;;;;0.15;0.10;;;11.20;99.90;;;;;;5047219;28;20257;-65
2022/10/03 03:37:19;;;;;;;0.00;0.00;;;11.20;99.90;;;;;;5048528;28;20220;-65
2022/10/03 03:39:53;;;;;;;0.00;0.00;;;11.20;99.90;;;;;;5021763;28;20182;-66
2022/10/03 03:42:28;;;;;;;0.00;0.00;;;11.20;99.90;;;;;;5033449;28;20178;-65
2022/10/03 03:45:12;;;;;;;0.00;0.00;;;11.20;99.90;;;;;;5036642;28;20213;-65
2022/10/03 03:48:05;;;;;;;0.10;0.10;;;11.20;99.90;;;;;;5041668;28;20632;-65
2022/10/03 03:50:44;;;;;;;0.00;0.00;;;11.20;99.90;;;;;;5046540;28;20239;-66
2022/10/03 03:53:10;;;;;;;0.00;0.00;;;11.20;99.90;;;;;;5040918;28;20181;-65
2022/10/03 03:55:59;;;;;;;0.00;0.00;;;11.20;99.90;;;;;;5036985;28;20213;-65
2022/10/03 03:58:33;;;;;;;0.10;0.10;;;11.20;99.90;;;;;;5044366;28;20517;-65
2022/10/03 04:01:30;;;;;;;0.00;0.00;;;11.20;99.90;;;;;;5039360;28;20184;-66
2022/10/03 04:04:20;;;;;;;0.00;0.00;;;11.10;99.90;;;;;;5045797;28;20229;-65
2022/10/03 04:07:43;;;;;;;0.30;0.15;;;11.10;99.90;;;;;;5028871;28;20174;-65
2022/10/03 04:10:37;;;;;;;0.20;0.20;;;11.10;99.90;;;;;;5011837;28;20182;-64
2022/10/03 04:13:38;;;;;;;0.03;0.03;;;11.10;99.90;;;;;;5016767;28;20194;-64
2022/10/03 04:19:38;;;;;;;0.00;0.00;;;10.90;99.90;;;;;;5037666;28;20239;-65
2022/10/03 04:22:16;;;;;;;0.10;0.10;;;10.90;99.90;;;;;;5021958;28;20193;-64
2022/10/03 04:25:06;;;;;;;0.00;0.00;;;10.90;99.90;;;;;;5034096;28;20591;-65
2022/10/03 04:27:37;;;;;;;0.00;0.00;;;10.80;99.90;;;;;;5047767;28;20209;-65
2022/10/03 04:30:13;;;;;;;0.00;0.00;;;10.80;99.90;;;;;;5040889;28;20223;-66
2022/10/03 04:33:04;;;;;;;0.00;0.00;;;10.80;99.90;;;;;;5020325;28;20557;-65
2022/10/03 04:35:51;;;;;;;0.20;0.00;;;10.70;99.90;;;;;;5038775;28;20208;-65
2022/10/03 04:38:38;;;;;;;0.45;0.25;;;10.70;99.90;;;;;;5022323;28;20201;-65
2022/10/03 04:41:15;;;;;;;0.00;0.00;;;10.60;99.90;;;;;;5047371;28;20188;-64
2022/10/03 04:44:10;;;;;;;0.00;0.00;;;10.70;99.90;;;;;;5044099;28;20607;-65
2022/10/03 04:46:56;;;;;;;0.10;0.10;;;10.60;99.90;;;;;;5012007;28;20191;-66
2022/10/03 04:49:37;;;;;;;0.00;0.00;;;10.60;99.90;;;;;;5048918;28;20185;-65
2022/10/03 04:52:17;;;;;;;0.00;0.00;;;10.60;99.90;;;;;;5046004;28;20185;-65
2022/10/03 04:55:00;;;;;;;0.55;0.38;;;10.50;99.90;;;;;;5034497;28;20685;-65
2022/10/03 04:57:31;;;;;;;0.10;0.10;;;10.50;99.90;;;;;;5044293;28;20580;-65
2022/10/03 05:00:07;;;;;;;0.00;0.00;;;10.50;99.90;;;;;;5031430;28;20199;-66
2022/10/03 05:02:45;;;;;;;0.00;0.00;;;10.50;99.90;;;;;;5031697;28;20559;-65
2022/10/03 05:05:50;;;;;;;0.00;0.00;;;10.40;99.90;;;;;;5044880;28;20239;-65
2022/10/03 05:08:45;;;;;;;0.00;0.00;;;10.40;99.90;;;;;;5032402;28;20217;-65
2022/10/03 05:11:29;;;;;;;0.15;0.15;;;10.30;99.90;;;;;;5017837;28;20186;-65
2022/10/03 05:14:10;;;;;;;0.10;0.10;;;10.40;99.90;;;;;;5031690;28;20518;-65
2022/10/03 05:16:46;;;;;;;0.00;0.00;;;10.40;99.90;;;;;;5011874;28;20319;-65
2022/10/03 05:19:46;;;;;;;0.00;0.00;;;10.30;99.90;;;;;;5043598;28;20669;-65
2022/10/03 05:22:22;;;;;;;0.00;0.00;;;10.40;99.90;;;;;;5040072;28;20289;-66
2022/10/03 05:25:10;;;;;;;0.10;0.10;;;10.30;99.90;;;;;;5041438;28;20193;-65
2022/10/03 05:27:50;;;;;;;0.05;0.05;;;10.40;99.90;;;;;;5042479;28;20529;-65
2022/10/03 05:30:39;;;;;;;0.00;0.00;;;10.40;99.90;;;;;;5039244;28;20190;-65
2022/10/03 05:33:34;;;;;;;0.00;0.00;;;10.40;99.90;;;;;;5037571;28;20232;-65
2022/10/03 05:36:51;;;;;;;0.00;0.00;;;10.40;99.90;;;;;;5029885;28;20696;-65
2022/10/03 05:39:36;;;;;;;0.10;0.10;;;10.30;99.90;;;;;;5035194;28;20254;-65
2022/10/03 05:42:15;;;;;;;0.00;0.00;;;10.30;99.90;;;;;;5039159;28;20715;-65
2022/10/03 05:44:45;;;;;;;0.00;0.00;;;10.40;99.90;;;;;;5045675;28;20193;-65
2022/10/03 05:47:47;;;;;;;0.10;0.10;;;10.40;99.90;;;;;;5051345;28;20185;-65
2022/10/03 05:50:27;;;;;;;0.00;0.00;;;10.40;99.90;;;;;;5036181;28;20208;-65
2022/10/03 05:53:10;;;;;;;0.10;0.10;;;10.40;99.90;;;;;;5043088;28;20177;-65
2022/10/03 05:56:02;;;;;;;0.00;0.00;;;10.50;99.90;;;;;;5034498;28;20178;-66
2022/10/03 05:58:46;;;;;;;0.00;0.00;;;10.50;99.90;;;;;;5043773;28;20198;-65
2022/10/03 06:01:26;;;;;;;0.00;0.00;;;10.50;99.90;;;;;;5037304;28;20220;-65
2022/10/03 06:04:44;;;;;;;0.00;0.00;;;10.50;99.90;;;;;;5045318;28;20221;-65
2022/10/03 06:07:30;;;;;;;0.00;0.00;;;10.50;99.90;;;;;;5047858;28;20189;-65
2022/10/03 06:10:26;;;;;;;0.00;0.00;;;10.60;99.90;;;;;;5035392;28;20649;-66
2022/10/03 06:13:11;;;;;;;0.77;0.77;;;10.60;99.90;;;;;;5048675;28;20188;-65
2022/10/03 06:16:10;;;;;;;0.40;0.40;;;10.70;99.90;;;;;;5037717;28;20281;-66
2022/10/03 06:18:35;;;;;;;0.10;0.10;;;10.70;99.90;;;;;;5045085;28;20197;-66
2022/10/03 06:21:31;;;;;;;0.55;0.55;;;10.80;99.90;;;;;;5046655;28;20220;-65
2022/10/03 06:24:24;;;;;;;0.28;0.28;;;10.80;99.90;;;;;;5034309;28;20691;-66
2022/10/03 06:27:34;;;;;;;0.10;0.10;;;10.90;99.90;;;;;;5041528;28;20834;-65
2022/10/03 06:30:43;;;;;;;0.13;0.08;;;10.90;99.90;;;;;;5016529;28;20210;-66
2022/10/03 06:33:42;;;;;;;0.63;0.22;;;11.00;99.90;;;;;;5037984;28;20187;-65
2022/10/03 06:36:35;;;;;;;0.45;0.45;;;11.10;99.90;;;;;;5049798;28;20212;-65
2022/10/03 06:39:38;;;;;;;0.00;0.00;;;11.20;99.90;;;;;;5037442;28;20204;-66
2022/10/03 06:42:09;;;;;;;0.00;0.00;;;11.20;99.90;;;;;;5036919;28;20204;-65
2022/10/03 06:45:14;;;;;;;0.05;0.05;;;11.30;99.90;;;;;;5043543;28;20279;-65
2022/10/03 06:48:00;;;;;;;0.10;0.10;;;11.40;99.90;;;;;;5044132;28;20186;-65
2022/10/03 06:51:10;;;;;;;0.30;0.30;;;11.40;99.90;;;;;;5047638;28;20213;-66
2022/10/03 06:54:07;;;;;;;0.08;0.08;;;11.50;99.90;;;;;;5050598;28;20606;-66
2022/10/03 06:57:03;;;;;;;0.00;0.00;;;11.60;99.90;;;;;;5045038;28;20296;-66
2022/10/03 06:59:36;;;;;;;0.32;0.30;;;11.70;99.90;;;;;;5033563;28;20247;-66
2022/10/03 07:02:36;;;;;;;0.10;0.10;;;11.80;99.90;;;;;;5035712;28;20582;-67
2022/10/03 07:05:28;;;;;;;0.00;0.00;;;11.90;99.90;;;;;;5033476;28;20186;-66
2022/10/03 07:08:33;;;;;;;0.05;0.00;;;12.00;99.90;;;;;;5034918;28;20218;-67
2022/10/03 07:11:20;;;;;;;0.03;0.03;;;12.00;99.90;;;;;;5033224;28;20197;-66
2022/10/03 07:14:13;;;;;;;0.05;0.03;;;12.10;99.90;;;;;;5052484;28;20173;-67
2022/10/03 07:16:53;;;;;;;0.00;0.00;;;12.20;99.90;;;;;;5035007;28;20571;-67
2022/10/03 07:19:37;;;;;;;0.00;0.00;;;12.30;99.90;;;;;;5032817;28;20260;-63
2022/10/03 07:22:09;;;;;;;0.10;0.10;;;12.40;99.90;;;;;;5028587;28;20699;-61
2022/10/03 07:24:59;;;;;;;0.90;0.52;;;12.40;99.90;;;;;;5051356;28;20581;-64
2022/10/03 07:27:49;;;;;;;0.22;0.17;;;12.40;99.90;;;;;;5052732;28;20191;-63
2022/10/03 07:30:22;;;;;;;0.00;0.00;;;12.40;99.90;;;;;;5046794;28;20181;-67
2022/10/03 07:32:57;;;;;;;0.20;0.20;;;12.40;99.90;;;;;;5038328;28;20186;-68
2022/10/03 07:38:59;;;;;;;0.10;0.10;;;12.50;99.90;;;;;;5046429;28;20203;-74
2022/10/03 07:41:56;;;;;;;0.20;0.20;;;12.50;99.90;;;;;;5039939;28;20167;-66
2022/10/03 07:44:52;;;;;;;0.00;0.00;;;12.50;99.90;;;;;;5025970;28;20191;-65
2022/10/03 07:47:45;;;;;;;0.00;0.00;;;12.50;99.90;;;;;;5045242;28;20639;-66
2022/10/03 07:50:51;;;;;;;0.25;0.25;;;12.60;99.90;;;;;;5014685;28;20588;-66
2022/10/03 07:53:54;;;;;;;0.52;0.40;;;12.60;99.90;;;;;;5036287;28;20182;-65
2022/10/03 07:56:47;;;;;;;0.32;0.32;;;12.60;99.90;;;;;;5033068;28;20304;-65
2022/10/03 07:59:57;;;;;;;0.20;0.20;;;12.70;99.90;;;;;;5032470;28;20582;-65
2022/10/03 08:02:54;;;;;;;0.00;0.00;;;12.70;99.90;;;;;;5041328;28;20604;-66
2022/10/03 08:05:43;;;;;;;0.15;0.05;;;12.80;99.90;;;;;;5035221;28;20190;-66
2022/10/03 08:08:20;;;;;;;0.60;0.30;;;12.80;99.90;;;;;;5029868;28;20539;-66
2022/10/03 08:11:06;;;;;;;0.17;0.17;;;13.00;99.90;;;;;;5038482;28;20563;-66
2022/10/03 08:13:49;;;;;;;0.30;0.30;;;13.10;99.90;;;;;;5034098;28;20174;-65
2022/10/03 08:16:39;;;;;;;0.00;0.00;;;13.30;99.90;;;;;;5043056;28;20702;-65
2022/10/03 08:19:50;;;;;;;0.30;0.30;;;13.40;99.90;;;;;;5046389;28;20181;-65
2022/10/03 08:22:45;;;;;;;0.00;0.00;;;13.50;99.90;;;;;;5037236;28;20552;-66
2022/10/03 08:25:28;;;;;;;0.00;0.00;;;13.60;99.90;;;;;;5032099;28;20174;-66
2022/10/03 08:27:57;;;;;;;0.00;0.00;;;13.70;99.90;;;;;;5046692;28;20189;-66
2022/10/03 08:30:27;;;;;;;0.08;0.08;;;14.30;99.90;;;;;;5051914;28;20193;-66
2022/10/03 08:33:13;;;;;;;3.15;0.10;;;15.20;99.90;;;;;;5042950;28;20661;-66
2022/10/03 08:36:05;;;;;;;0.00;0.00;;;15.90;99.90;;;;;;5031867;28;20189;-67
2022/10/03 08:38:48;;;;;;;0.00;0.00;;;16.30;99.90;;;;;;5049032;28;20219;-66
2022/10/03 08:41:31;;;;;;;0.00;0.00;;;16.40;99.90;;;;;;5046194;28;20268;-66
2022/10/03 08:44:24;;;;;;;0.20;0.20;;;16.50;99.90;;;;;;5051798;28;20180;-66
2022/10/03 08:46:50;;;;;;;0.20;0.20;;;16.60;99.90;;;;;;5050436;28;20173;-66
2022/10/03 08:49:51;;;;;;;0.30;0.30;;;16.60;99.90;;;;;;5045276;28;20192;-67
2022/10/03 08:53:08;;;;;;;0.00;0.00;;;16.70;99.90;;;;;;5049855;28;20644;-68
2022/10/03 08:55:44;;;;;;;0.00;0.00;;;16.60;99.90;;;;;;5028168;28;20244;-65
2022/10/03 08:58:39;;;;;;;0.10;0.10;;;16.60;99.90;;;;;;5045553;28;20327;-68
2022/10/03 09:01:33;;;;;;;0.03;0.03;;;16.30;99.90;;;;;;5041831;28;20185;-68
2022/10/03 09:04:18;;;;;;;0.00;0.00;;;16.10;99.90;;;;;;5021901;28;20229;-68
2022/10/03 09:06:59;;;;;;;0.00;0.00;;;16.00;99.90;;;;;;5032493;28;20170;-67
2022/10/03 09:10:02;;;;;;;0.38;0.38;;;15.90;99.90;;;;;;5046978;28;20180;-68
2022/10/03 09:12:57;;;;;;;0.00;0.00;;;15.70;99.90;;;;;;5023906;28;20181;-68
2022/10/03 09:16:03;;;;;;;0.00;0.00;;;15.70;99.90;;;;;;5041973;28;20663;-68
2022/10/03 09:18:44;;;;;;;0.00;0.00;;;15.60;99.90;;;;;;5036355;28;20229;-67
2022/10/03 09:21:38;;;;;;;0.55;0.15;;;15.40;99.90;;;;;;5036481;28;20170;-67
2022/10/03 09:24:46;;;;;;;0.75;0.47;;;15.30;99.90;;;;;;5015479;28;20724;-67
2022/10/03 09:27:25;;;;;;;0.00;0.00;;;15.50;99.90;;;;;;5052202;28;20255;-69
2022/10/03 09:30:19;;;;;;;0.73;0.73;;;16.20;99.90;;;;;;5036634;28;20252;-69
2022/10/03 09:33:01;;;;;;;1.00;1.00;;;16.80;99.90;;;;;;5039441;28;20190;-70
2022/10/03 09:36:04;;;;;;;0.20;0.20;;;17.30;99.90;;;;;;5039812;28;20190;-70
2022/10/03 09:39:02;;;;;;;0.00;0.00;;;17.90;99.90;;;;;;5036177;28;20255;-69
2022/10/03 09:42:05;;;;;;;0.00;0.00;;;18.00;99.90;;;;;;5052077;28;20188;-68
2022/10/03 09:44:40;;;;;;;0.10;0.10;;;18.20;99.90;;;;;;5024563;28;20190;-68
2022/10/03 09:47:21;;;;;;;0.08;0.08;;;18.70;99.90;;;;;;5055067;28;20181;-70
2022/10/03 09:50:20;;;;;;;0.00;0.00;;;19.30;99.90;;;;;;5049362;28;20177;-70
2022/10/03 09:53:17;;;;;;;0.10;0.10;;;20.10;99.90;;;;;;5049741;28;20181;-70
2022/10/03 09:56:36;;;;;;;0.00;0.00;;;20.50;99.90;;;;;;5036088;28;20244;-68
2022/10/03 09:59:23;;;;;;;0.00;0.00;;;20.60;99.70;;;;;;5040071;28;20190;-69
2022/10/03 10:02:13;;;;;;;0.20;0.20;;;20.40;99.10;;;;;;5034875;28;20178;-69
2022/10/03 10:04:57;;;;;;;0.00;0.00;;;20.00;99.60;;;;;;5035004;28;20237;-67
2022/10/03 10:07:57;;;;;;;2.88;0.73;;;19.70;99.30;;;;;;5034527;28;20189;-67
2022/10/03 10:10:37;;;;;;;2.13;1.95;;;19.20;99.90;;;;;;5034329;28;20181;-66
2022/10/03 10:13:03;;;;;;;0.17;0.17;;;19.00;99.90;;;;;;5034547;28;20609;-69
2022/10/03 10:15:35;;;;;;;0.00;0.00;;;18.90;99.90;;;;;;5034814;28;20162;-70
2022/10/03 10:18:24;;;;;;;0.40;0.40;;;18.80;99.90;;;;;;5034460;28;20198;-69
2022/10/03 10:21:08;;;;;;;0.75;0.50;;;18.80;99.90;;;;;;5053991;28;20181;-67
2022/10/03 10:24:01;;;;;;;0.13;0.13;;;19.00;99.90;;;;;;5043536;28;20182;-69
2022/10/03 10:27:04;;;;;;;0.32;0.32;;;19.50;99.90;;;;;;5053445;28;20185;-69
2022/10/03 10:29:48;;;;;;;0.00;0.00;;;20.10;99.90;;;;;;5054002;28;20321;-69
2022/10/03 10:32:42;;;;;;;0.00;0.00;;;20.80;98.70;;;;;;5052591;28;20629;-69
2022/10/03 10:35:32;;;;;;;0.00;0.00;;;21.30;97.90;;;;;;5053232;28;20552;-71
2022/10/03 10:38:03;;;;;;;0.00;0.00;;;21.30;96.80;;;;;;5038981;28;20194;-68
2022/10/03 10:40:42;;;;;;;0.10;0.10;;;21.10;96.30;;;;;;5036572;28;20174;-69
2022/10/03 10:43:14;;;;;;;0.00;0.00;;;20.80;96.50;;;;;;5019630;28;20181;-69
2022/10/03 10:46:15;;;;;;;0.13;0.13;;;20.40;96.70;;;;;;5017509;28;20186;-68
2022/10/03 10:48:52;;;;;;;0.63;0.63;;;20.00;96.80;;;;;;5012870;28;20278;-68
2022/10/03 10:51:29;;;;;;;0.00;0.00;;;19.60;97.70;;;;;;5037407;28;20181;-68
2022/10/03 10:54:30;;;;;;;0.10;0.10;;;19.50;98.00;;;;;;5050780;28;20182;-68
2022/10/03 10:57:28;;;;;;;0.10;0.10;;;19.70;98.30;;;;;;5051819;28;20668;-68
2022/10/03 11:00:16;;;;;;;0.00;0.00;;;20.10;96.70;;;;;;5049419;28;20196;-69
2022/10/03 11:02:42;;;;;;;0.00;0.00;;;20.40;97.40;;;;;;5047773;28;20667;-68
2022/10/03 11:05:28;;;;;;;0.00;0.00;;;20.60;96.10;;;;;;5034440;28;20533;-68
2022/10/03 11:08:29;;;;;;;0.00;0.00;;;20.90;96.10;;;;;;5033562;28;20530;-68
2022/10/03 11:11:16;;;;;;;0.00;0.00;;;21.30;94.70;;;;;;5052958;28;20197;-68
2022/10/03 11:14:15;;;;;;;0.20;0.20;;;21.60;94.30;;;;;;5041547;28;20182;-68
2022/10/03 11:17:28;;;;;;;0.00;0.00;;;21.80;93.40;;;;;;5035990;28;20572;-68
2022/10/03 11:20:12;;;;;;;0.32;0.32;;;22.10;93.90;;;;;;5053227;28;20195;-68
2022/10/03 11:23:17;;;;;;;0.00;0.00;;;22.40;93.50;;;;;;5053178;28;20248;-68
2022/10/03 11:26:09;;;;;;;0.00;0.00;;;22.70;91.80;;;;;;5038482;28;20201;-70
2022/10/03 11:29:00;;;;;;;0.00;0.00;;;22.90;90.40;;;;;;5033147;28;20174;-69
2022/10/03 11:32:02;;;;;;;0.00;0.00;;;22.80;87.00;;;;;;5036019;28;20274;-68
2022/10/03 11:34:42;;;;;;;0.05;0.05;;;22.80;89.90;;;;;;5047429;28;20532;-67
2022/10/03 11:37:36;;;;;;;0.00;0.00;;;22.90;87.70;;;;;;5042181;28;20225;-68
2022/10/03 11:40:27;;;;;;;0.10;0.00;;;22.80;84.80;;;;;;5013027;28;20233;-67
2022/10/03 11:43:31;;;;;;;2.28;0.82;;;22.20;81.10;;;;;;5029936;28;20695;-67
2022/10/03 11:46:05;;;;;;;0.10;0.10;;;21.70;78.60;;;;;;5013235;28;20199;-68
2022/10/03 11:48:40;;;;;;;0.00;0.00;;;21.30;83.00;;;;;;5037309;28;20165;-67
2022/10/03 11:51:39;;;;;;;0.13;0.13;;;20.90;85.40;;;;;;5031448;28;20185;-68
2022/10/03 11:54:26;;;;;;;0.00;0.00;;;20.70;87.80;;;;;;5037646;28;20186;-67
2022/10/03 11:57:14;;;;;;;0.00;0.00;;;20.60;86.50;;;;;;5046078;28;20260;-68
2022/10/03 12:00:12;;;;;;;0.00;0.00;;;20.40;87.50;;;;;;5043989;28;20294;-67
2022/10/03 12:03:09;;;;;;;0.45;0.45;;;20.20;89.00;;;;;;5049951;28;20227;-68
2022/10/03 12:09:05;;;;;;;0.17;0.17;;;19.90;84.90;;;;;;5036281;28;20465;-67
2022/10/03 12:11:40;;;;;;;0.00;0.00;;;19.70;85.30;;;;;;5052017;28;20208;-67
2022/10/03 12:14:11;;;;;;;0.52;0.52;;;19.70;84.70;;;;;;5044258;28;20602;-65
2022/10/03 12:17:02;;;;;;;5.07;2.28;;;19.60;86.60;;;;;;5031713;28;20217;-66
2022/10/03 12:19:30;;;;;;;0.28;0.28;;;19.60;89.10;;;;;;5031469;28;20289;-66
2022/10/03 12:22:02;;;;;;;0.10;0.10;;;19.80;88.60;;;;;;5031782;28;20177;-65
2022/10/03 12:24:33;;;;;;;0.50;0.30;;;19.90;87.90;;;;;;5031657;28;20277;-66
2022/10/03 12:27:29;;;;;;;0.52;0.52;;;20.10;88.10;;;;;;5031505;28;20179;-65
2022/10/03 12:30:15;;;;;;;0.00;0.00;;;20.40;87.50;;;;;;5038314;28;20226;-65
2022/10/03 12:33:07;;;;;;;0.00;0.00;;;20.70;82.30;;;;;;5043921;28;20182;-64
2022/10/03 12:35:42;;;;;;;0.10;0.10;;;21.00;82.20;;;;;;5039507;28;20178;-65
2022/10/03 12:38:46;;;;;;;0.00;0.00;;;21.10;81.40;;;;;;5042074;28;20658;-66
2022/10/03 12:41:42;;;;;;;0.00;0.00;;;21.00;78.90;;;;;;5025435;28;20181;-68
2022/10/03 12:44:29;;;;;;;0.20;0.10;;;20.80;80.20;;;;;;5011973;28;20183;-67
2022/10/03 12:47:25;;;;;;;0.00;0.00;;;20.60;80.10;;;;;;5019357;28;20186;-64
2022/10/03 12:50:26;;;;;;;0.00;0.00;;;20.40;80.20;;;;;;5030891;28;20216;-64
2022/10/03 12:53:15;;;;;;;0.00;0.00;;;20.20;80.80;;;;;;5005129;28;20194;-65
2022/10/03 12:55:56;;;;;;;0.43;0.35;;;19.80;82.70;;;;;;5021987;28;20189;-64
2022/10/03 12:58:31;;;;;;;0.32;0.30;;;19.60;84.80;;;;;;5036753;28;20732;-64
2022/10/03 13:01:19;;;;;;;0.00;0.00;;;19.40;86.20;;;;;;5044372;28;20193;-64
2022/10/03 13:03:56;;;;;;;0.00;0.00;;;19.10;86.80;;;;;;5045645;28;20218;-64
2022/10/03 13:06:37;;;;;;;0.00;0.00;;;18.80;87.60;;;;;;5046463;28;20170;-64
2022/10/03 13:09:05;;;;;;;0.00;0.00;;;18.60;88.10;;;;;;5039723;28;20263;-63
2022/10/03 13:12:06;;;;;;;0.17;0.17;;;18.50;90.00;;;;;;5055062;28;20204;-64
2022/10/03 13:14:55;;;;;;;0.00;0.00;;;18.50;90.60;;;;;;5055398;28;20204;-64
2022/10/03 13:17:26;;;;;;;0.20;0.20;;;18.50;90.50;;;;;;5044555;28;20589;-64
2022/10/03 13:20:04;;;;;;;0.10;0.10;;;18.40;89.50;;;;;;5055286;28;20177;-64
2022/10/03 13:22:51;;;;;;;0.00;0.00;;;18.30;88.60;;;;;;5055042;28;20541;-63
2022/10/03 13:25:21;;;;;;;0.00;0.00;;;18.20;88.60;;;;;;5054978;28;20177;-63
2022/10/03 13:28:11;;;;;;;0.00;0.00;;;18.20;89.20;;;;;;5055008;28;20188;-64
2022/10/03 13:30:55;;;;;;;0.00;0.00;;;18.10;89.80;;;;;;5055282;28;20185;-64
2022/10/03 13:33:24;;;;;;;0.10;0.10;;;18.00;90.30;;;;;;5025585;28;20589;-64
2022/10/03 13:36:13;;;;;;;0.05;0.05;;;18.00;90.50;;;;;;5034681;28;20646;-64
2022/10/03 13:39:04;;;;;;;0.08;0.08;;;17.90;91.20;;;;;;5035084;28;20713;-64
2022/10/03 13:41:51;;;;;;;0.20;0.20;;;17.70;90.30;;;;;;5034654;28;20209;-64
2022/10/03 13:44:27;;;;;;;0.00;0.00;;;17.70;91.90;;;;;;5034861;28;20185;-63
2022/10/03 13:47:08;;;;;;;0.10;0.10;;;17.70;91.60;;;;;;5034831;28;20184;-64
2022/10/03 13:49:45;;;;;;;0.00;0.00;;;17.80;90.40;;;;;;5034577;28;20182;-64
2022/10/03 13:52:39;;;;;;;0.00;0.00;;;17.80;90.50;;;;;;5034280;28;20284;-63
2022/10/03 13:55:11;;;;;;;0.00;0.00;;;18.00;90.80;;;;;;5034072;28;20539;-64
2022/10/03 13:57:57;;;;;;;0.00;0.00;;;18.20;90.90;;;;;;5034756;28;20214;-63
2022/10/03 14:00:27;;;;;;;0.00;0.00;;;18.40;90.30;;;;;;5037732;28;20203;-63
2022/10/03 14:03:26;;;;;;;1.15;0.10;;;18.50;90.90;;;;;;5045579;28;20220;-64
2022/10/03 14:06:23;;;;;;;0.00;0.00;;;18.70;90.00;;;;;;5046096;28;20188;-64
2022/10/03 14:09:16;;;;;;;0.00;0.00;;;18.90;90.10;;;;;;5040231;28;20679;-64
2022/10/03 14:12:13;;;;;;;0.00;0.00;;;18.80;90.00;;;;;;5022565;28;20174;-64
2022/10/03 14:14:51;;;;;;;0.00;0.00;;;18.90;88.30;;;;;;5034270;28;20186;-63
2022/10/03 14:17:38;;;;;;;0.00;0.00;;;19.00;89.10;;;;;;5034237;28;20283;-64
2022/10/03 14:20:34;;;;;;;0.00;0.00;;;19.00;87.80;;;;;;5034245;28;20237;-63
2022/10/03 14:23:11;;;;;;;0.00;0.00;;;19.10;86.40;;;;;;5029630;28;20201;-64
2022/10/03 14:25:55;;;;;;;0.00;0.00;;;18.90;81.80;;;;;;5034409;28;20189;-64
2022/10/03 14:28:32;;;;;;;0.00;0.00;;;18.80;83.50;;;;;;5034050;28;20174;-64
2022/10/03 14:31:16;;;;;;;0.00;0.00;;;18.90;84.50;;;;;;5034094;28;20174;-64
2022/10/03 14:34:07;;;;;;;0.00;0.00;;;19.00;86.60;;;;;;5034040;28;20182;-64
2022/10/03 14:36:39;;;;;;;0.00;0.00;;;19.10;85.50;;;;;;5033802;28;20787;-64
2022/10/03 14:39:24;;;;;;;0.10;0.10;;;19.10;87.40;;;;;;5033859;28;20186;-63
2022/10/03 14:42:06;;;;;;;0.10;0.10;;;19.10;85.40;;;;;;5033782;28;20186;-64
2022/10/03 14:44:42;;;;;;;0.20;0.20;;;19.10;83.70;;;;;;5033689;28;20266;-64
2022/10/03 14:47:18;;;;;;;0.00;0.00;;;19.00;84.90;;;;;;5034621;28;20244;-64